Time;durP1;ratioP1;P1;durP2;ratioP2;P2;SDS_P1;SDS_P2;PMS_P1;PMS_P2;Temp;Humidity;BMP_temperature;BMP_pressure;BME280_temperature;BME280_humidity;BME280_pressure;Samples;Min_cycle;Max_cycle;Signal;HPM_P1;HPM_P2
2023/10/24 00:01:36;;;;;;;4.20;1.33;;;16.00;99.90;;;-144.05;77.14;56978.41;5011548;28;20036;-77
2023/10/24 00:04:02;;;;;;;6.07;1.70;;;9.30;99.90;;;-144.05;77.23;56982.66;5013795;28;20034;-82
2023/10/24 00:06:28;;;;;;;7.35;1.27;;;15.90;99.90;;;-144.05;77.20;56955.03;5015363;28;20037;-80
2023/10/24 00:08:54;;;;;;;5.55;1.90;;;9.50;99.90;;;-144.05;77.50;56959.28;5014624;28;20403;-81
2023/10/24 00:11:20;;;;;;;4.72;1.30;;;;;;;-144.05;77.44;56959.28;4996669;28;20026;-79
2023/10/24 00:13:46;;;;;;;7.65;2.08;;;15.40;99.90;;;-144.05;77.41;56963.53;4995986;28;20057;-81
2023/10/24 00:16:12;;;;;;;3.67;1.95;;;;;;;-144.05;77.26;56942.28;5013493;28;20483;-82
2023/10/24 00:18:38;;;;;;;5.00;1.73;;;;;;;-144.05;77.67;56959.28;4995684;28;20064;-79
2023/10/24 00:21:04;;;;;;;3.78;1.40;;;9.70;99.90;;;-144.05;77.50;56974.16;5013553;28;20026;-81
2023/10/24 00:23:31;;;;;;;9.55;1.52;;;;;;;-144.05;78.39;56986.91;5015306;28;20033;-81
2023/10/24 00:25:57;;;;;;;4.05;1.50;;;9.10;99.90;;;-144.05;77.96;56955.03;5015250;28;20030;-81
2023/10/24 00:28:24;;;;;;;8.93;1.88;;;15.80;99.90;;;-144.05;77.74;56965.66;5001212;28;20022;-79
2023/10/24 00:30:50;;;;;;;4.63;1.95;;;;;;;-144.05;77.69;56959.28;5004597;28;20030;-81
2023/10/24 00:33:16;;;;;;;9.05;1.70;;;;;;;-144.05;77.01;56959.28;5019391;28;20045;-78
2023/10/24 00:35:43;;;;;;;3.22;1.77;;;;;;;-144.05;76.99;56969.91;4993902;28;20026;-82
2023/10/24 00:38:09;;;;;;;5.28;1.60;;;9.80;99.90;;;-144.05;76.95;56931.66;4994632;28;20025;-80
2023/10/24 00:40:34;;;;;;;7.65;1.95;;;9.70;99.90;;;-144.05;76.79;56950.78;5012106;28;20657;-81
2023/10/24 00:43:05;;;;;;;5.05;1.70;;;9.70;99.90;;;-144.05;77.24;56946.53;5011818;28;20030;-79
2023/10/24 00:45:34;;;;;;;3.25;1.70;;;16.10;99.90;;;-144.05;77.24;56969.91;5012231;28;20036;-80
2023/10/24 00:48:02;;;;;;;2.88;1.67;;;9.90;99.90;;;-144.05;77.33;56967.78;5011941;28;20084;-80
2023/10/24 00:50:28;;;;;;;3.42;1.70;;;10.40;99.90;;;-144.05;77.06;56959.28;5012078;28;20081;-79
2023/10/24 00:52:56;;;;;;;6.18;2.13;;;9.70;99.90;;;-144.05;76.46;56944.41;5011851;28;20503;-81
2023/10/24 00:55:22;;;;;;;4.68;2.10;;;9.40;99.90;;;-144.05;76.77;56955.03;5012001;28;20111;-79
2023/10/24 00:57:52;;;;;;;4.93;2.15;;;13.50;99.90;;;-144.05;76.94;56961.41;5013788;28;20030;-79
2023/10/24 01:00:23;;;;;;;5.82;2.17;;;13.50;99.90;;;-144.05;76.96;56940.16;5015136;28;20131;-77
2023/10/24 01:02:49;;;;;;;4.95;1.65;;;15.80;99.90;;;-144.05;76.89;56938.03;4997422;28;20037;-79
2023/10/24 01:05:16;;;;;;;10.05;2.20;;;15.80;99.90;;;-144.05;77.07;56955.03;4997505;28;20026;-79
2023/10/24 01:07:44;;;;;;;4.82;2.28;;;9.60;99.90;;;-144.05;77.13;56961.41;4997238;28;20036;-78
2023/10/24 01:10:12;;;;;;;5.88;2.00;;;13.40;99.90;;;-144.05;76.55;56974.16;4997229;28;20036;-79
2023/10/24 01:12:39;;;;;;;8.07;2.20;;;16.00;99.90;;;-144.05;76.77;56961.41;5014759;28;20030;-78
2023/10/24 01:15:06;;;;;;;4.10;1.92;;;9.70;99.90;;;-144.05;76.61;56972.03;5014514;28;20038;-79
2023/10/24 01:17:32;;;;;;;7.35;2.40;;;9.60;99.90;;;-144.05;77.11;56965.66;4996859;28;20495;-78
2023/10/24 01:19:59;;;;;;;7.40;2.15;;;;;;;-144.05;77.04;56978.41;5014641;28;20029;-79
2023/10/24 01:22:25;;;;;;;6.35;1.58;;;;;;;-144.05;77.02;56967.78;4996332;28;20026;-76
2023/10/24 01:24:52;;;;;;;4.25;2.20;;;9.40;99.90;;;-144.05;76.89;56980.53;5013982;28;20029;-77
2023/10/24 01:27:23;;;;;;;2.45;1.65;;;15.90;99.90;;;-144.05;76.30;56955.03;4996355;28;20105;-78
2023/10/24 01:29:48;;;;;;;3.65;1.70;;;9.70;99.90;;;-144.05;77.13;56976.28;4996451;28;20065;-78
2023/10/24 01:32:15;;;;;;;2.50;1.50;;;;;;;-144.05;77.19;56946.53;5013911;28;20029;-78
2023/10/24 01:34:40;;;;;;;4.70;1.95;;;9.30;99.90;;;-144.05;76.99;56978.41;5013876;28;20058;-78
2023/10/24 01:37:06;;;;;;;2.38;1.65;;;;;;;-144.05;76.54;56963.53;5013887;28;20073;-79
2023/10/24 01:39:32;;;;;;;5.43;1.60;;;9.40;99.90;;;-144.05;76.32;56969.91;4996475;28;20022;-79
2023/10/24 01:41:58;;;;;;;8.65;2.00;;;;;;;-144.05;75.91;56982.66;5013934;28;20049;-77
2023/10/24 01:44:25;;;;;;;6.03;1.60;;;;;;;-144.05;76.10;56935.91;4996015;28;20033;-77
2023/10/24 01:46:51;;;;;;;6.05;1.90;;;;;;;-144.05;76.08;56974.16;4996074;28;20077;-77
2023/10/24 01:49:17;;;;;;;2.97;1.50;;;9.30;99.90;;;-144.05;76.37;56978.41;5013390;28;20034;-77
2023/10/24 01:51:43;;;;;;;5.35;1.52;;;16.00;99.90;;;-144.05;76.73;56904.06;5013782;28;20395;-76
2023/10/24 01:54:09;;;;;;;5.45;1.48;;;;;;;-144.05;76.66;56938.03;5013760;28;20065;-78
2023/10/24 01:56:35;;;;;;;10.30;1.50;;;10.10;99.90;;;-144.05;76.46;56961.41;5013770;28;20029;-77
2023/10/24 01:59:01;;;;;;;3.97;1.85;;;;;;;-144.05;76.47;56957.16;5015651;28;20030;-81
2023/10/24 02:01:27;;;;;;;5.18;1.58;;;;;;;-144.05;76.30;56989.00;5015424;28;20033;-78
2023/10/24 02:03:54;;;;;;;4.93;1.52;;;9.60;99.90;;;-144.05;76.54;56978.41;5013138;28;20462;-79
2023/10/24 02:06:20;;;;;;;6.97;1.55;;;9.80;99.90;;;-144.05;76.26;56925.28;5013098;28;20419;-78
2023/10/24 02:08:46;;;;;;;4.78;1.45;;;16.00;99.90;;;-144.05;76.95;56959.28;5012150;28;20029;-79
2023/10/24 02:11:12;;;;;;;4.18;1.40;;;;;;;-144.05;76.59;56948.66;4995394;28;20139;-79
2023/10/24 02:13:38;;;;;;;5.22;1.48;;;;;;;-144.05;75.79;56938.03;5012662;28;20444;-77
2023/10/24 02:16:04;;;;;;;4.00;1.50;;;15.90;99.90;;;-144.05;76.02;56976.28;5012993;28;20057;-77
2023/10/24 02:18:30;;;;;;;6.15;1.70;;;9.70;99.90;;;-144.05;76.10;56942.28;5012950;28;20026;-78
2023/10/24 02:20:56;;;;;;;2.17;1.50;;;;;;;-144.05;76.27;56942.28;5012734;28;20463;-78
2023/10/24 02:23:22;;;;;;;3.15;1.27;;;9.20;99.90;;;-144.05;76.48;56984.78;5012665;28;20033;-78
2023/10/24 02:25:48;;;;;;;3.50;1.63;;;9.20;99.90;;;-144.05;76.36;56946.53;5012882;28;20051;-77
2023/10/24 02:28:14;;;;;;;3.67;1.65;;;;;;;-144.05;75.53;56972.03;4994954;28;20041;-78
2023/10/24 02:30:40;;;;;;;4.25;1.83;;;9.90;99.90;;;-144.05;75.80;56974.16;5012822;28;20057;-78
2023/10/24 02:33:06;;;;;;;4.72;1.60;;;9.50;99.90;;;-144.05;76.88;56976.28;4994738;28;20511;-78
2023/10/24 02:35:33;;;;;;;3.10;1.88;;;;;;;-144.05;75.90;56995.38;5012719;28;20061;-79
2023/10/24 02:37:59;;;;;;;5.60;1.20;;;;;;;-144.05;75.80;56963.53;5012355;28;20025;-78
2023/10/24 02:40:25;;;;;;;3.75;1.27;;;;;;;-144.05;76.12;56950.78;5012522;28;20605;-77
2023/10/24 02:42:51;;;;;;;4.50;1.60;;;;;;;-144.05;77.01;56961.41;5012493;28;20033;-78
2023/10/24 02:45:17;;;;;;;4.28;1.58;;;16.20;99.90;;;-144.05;76.36;56955.03;5012461;28;20026;-78
2023/10/24 02:47:44;;;;;;;2.78;1.25;;;;;;;-144.05;76.70;56986.91;5012355;28;20406;-77
2023/10/24 02:50:09;;;;;;;3.00;1.58;;;9.30;99.90;;;-144.05;76.10;56935.91;4994644;28;20061;-78
2023/10/24 02:52:35;;;;;;;4.93;1.58;;;15.90;99.90;;;-144.05;76.48;56986.91;5012333;28;20040;-79
2023/10/24 02:55:03;;;;;;;3.40;1.30;;;9.80;99.90;;;-144.05;76.47;56976.28;5012361;28;20041;-79
2023/10/24 02:57:28;;;;;;;3.63;1.40;;;16.00;99.90;;;-144.05;76.27;56991.13;5012554;28;20030;-78
2023/10/24 02:59:55;;;;;;;3.05;1.40;;;16.00;99.90;;;-144.05;76.27;56957.16;5012178;28;20080;-77
2023/10/24 03:02:21;;;;;;;2.60;1.40;;;9.20;99.90;;;-144.05;76.96;56978.41;4994403;28;20033;-77
2023/10/24 03:04:47;;;;;;;3.63;1.50;;;9.50;99.90;;;-144.05;76.88;56944.41;4994571;28;20104;-77
2023/10/24 03:07:13;;;;;;;2.10;1.00;;;;;;;-144.05;76.80;56972.03;5012205;28;20038;-77
2023/10/24 03:09:39;;;;;;;4.65;1.73;;;9.20;99.90;;;-144.05;77.06;56963.53;5012003;28;20507;-77
2023/10/24 03:12:09;;;;;;;3.47;1.33;;;16.00;99.90;;;-144.05;77.37;56957.16;5012172;28;20057;-79
2023/10/24 03:14:36;;;;;;;1.75;1.17;;;9.60;99.90;;;-144.05;77.46;56965.66;5012046;28;20037;-78
2023/10/24 03:17:02;;;;;;;5.07;1.45;;;10.10;99.90;;;-144.05;76.49;56984.78;5011922;28;20084;-78
2023/10/24 03:19:31;;;;;;;4.53;1.63;;;;;;;-144.05;76.07;56978.41;5011791;28;20052;-76
2023/10/24 03:21:58;;;;;;;3.72;1.45;;;;;;;-144.05;76.72;56976.28;5013094;28;20038;-81
2023/10/24 03:24:28;;;;;;;6.00;1.40;;;9.20;99.90;;;-144.05;76.55;56952.91;4994170;28;20029;-81
2023/10/24 03:26:54;;;;;;;3.63;1.58;;;9.50;99.90;;;-144.05;76.71;56969.91;5012269;28;20018;-79
2023/10/24 03:29:20;;;;;;;2.95;1.15;;;9.60;99.90;;;-144.05;77.11;56972.03;5011540;28;20026;-78
2023/10/24 03:31:46;;;;;;;2.35;1.63;;;;;;;-144.05;77.21;56923.19;4994147;28;20034;-79
2023/10/24 03:34:12;;;;;;;3.20;1.60;;;9.30;99.90;;;-144.05;77.58;56961.41;5012510;28;20547;-79
2023/10/24 03:36:38;;;;;;;3.75;1.38;;;9.60;99.90;;;-144.05;77.51;56995.38;5004516;28;20041;-79
2023/10/24 03:39:05;;;;;;;3.10;1.38;;;9.60;99.90;;;-144.05;77.61;56950.78;5023088;28;20092;-79
2023/10/24 03:41:31;;;;;;;2.13;1.40;;;9.60;99.90;;;-144.05;78.44;56972.03;4994313;28;20049;-80
2023/10/24 03:43:57;;;;;;;3.83;1.30;;;;;;;-144.05;78.99;56974.16;4993667;28;20100;-77
2023/10/24 03:46:23;;;;;;;5.10;1.80;;;;;;;-144.05;78.47;56967.78;5011564;28;20110;-78
2023/10/24 03:48:49;;;;;;;4.20;1.35;;;9.40;99.90;;;-144.05;78.83;56976.28;5011471;28;20605;-78
2023/10/24 03:51:15;;;;;;;2.20;1.23;;;9.40;99.90;;;-144.05;79.04;56959.28;4993657;28;20125;-79
2023/10/24 03:53:41;;;;;;;4.03;1.40;;;;;;;-144.05;80.07;56921.06;4993739;28;20030;-79
2023/10/24 03:56:07;;;;;;;3.17;1.35;;;9.40;99.90;;;-144.05;80.12;56974.16;5011227;28;20036;-78
2023/10/24 03:58:33;;;;;;;2.42;1.27;;;15.30;99.90;;;-144.05;80.40;56969.91;5011557;28;20030;-78
2023/10/24 04:01:04;;;;;;;4.90;1.45;;;15.40;99.90;;;-144.05;80.35;56940.16;4993507;28;20030;-79
2023/10/24 04:03:31;;;;;;;3.45;1.20;;;9.20;99.90;;;-144.05;80.87;56940.16;5011094;28;20083;-79
2023/10/24 04:05:57;;;;;;;5.05;1.40;;;;;;;-144.05;81.25;56978.41;5011206;28;20022;-78
2023/10/24 04:08:23;;;;;;;4.38;1.40;;;9.00;99.90;;;-144.05;81.00;56963.53;5011210;28;20029;-78
2023/10/24 04:10:49;;;;;;;2.13;1.25;;;8.90;99.90;;;-144.05;81.52;56942.28;5011038;28;20156;-79
2023/10/24 04:13:15;;;;;;;4.18;1.60;;;;;;;-144.05;80.78;56938.03;4993462;28;20034;-79
2023/10/24 04:15:41;;;;;;;3.08;1.33;;;15.80;99.90;;;-144.05;81.01;56984.78;4993950;28;20078;-79
2023/10/24 04:18:07;;;;;;;2.15;1.20;;;8.80;99.90;;;-144.05;81.34;56967.78;4993887;28;20036;-79
2023/10/24 04:20:33;;;;;;;3.05;1.23;;;;;;;-144.05;81.64;56950.78;5012416;28;20555;-79
2023/10/24 04:23:03;;;;;;;4.75;2.05;;;8.80;99.90;;;-144.05;81.95;56950.78;5012516;28;20491;-80
2023/10/24 04:25:30;;;;;;;3.85;1.60;;;9.30;99.90;;;-144.05;82.09;56976.28;5014754;28;20030;-80
2023/10/24 04:27:57;;;;;;;4.55;1.00;;;;;;;-144.05;82.39;56967.78;5015925;28;20038;-80
2023/10/24 04:30:23;;;;;;;3.58;1.50;;;8.70;99.90;;;-144.05;81.73;56969.91;4998317;28;20042;-81
2023/10/24 04:32:49;;;;;;;3.22;0.95;;;15.80;99.90;;;-144.05;81.59;56978.41;5028204;28;20033;-79
2023/10/24 04:35:15;;;;;;;3.67;1.30;;;;;;;-144.05;82.56;56959.28;5013015;28;20082;-78
2023/10/24 04:37:41;;;;;;;1.55;1.38;;;9.40;99.90;;;-144.05;81.74;56950.78;5027335;28;20030;-80
2023/10/24 04:40:08;;;;;;;3.38;1.52;;;9.40;99.90;;;-144.05;82.01;56984.78;5007084;28;20034;-79
2023/10/24 04:42:34;;;;;;;1.45;1.00;;;9.50;99.90;;;-144.05;81.37;56950.78;4998818;28;20021;-79
2023/10/24 04:45:00;;;;;;;3.80;1.50;;;;;;;-144.05;81.81;56978.41;4999459;28;20018;-77
2023/10/24 04:47:26;;;;;;;2.80;1.33;;;;;;;-144.05;81.87;56940.16;5003217;28;20026;-78
2023/10/24 04:49:52;;;;;;;3.75;1.20;;;;;;;-144.05;81.83;56972.03;5019321;28;20113;-79
2023/10/24 04:52:18;;;;;;;1.20;0.90;;;9.30;99.90;;;-144.05;82.26;56950.78;5001477;28;20033;-77
2023/10/24 04:54:44;;;;;;;6.28;1.27;;;15.90;99.90;;;-144.05;82.52;56961.41;5019419;28;20034;-79
2023/10/24 04:57:10;;;;;;;4.03;1.55;;;15.80;99.90;;;-144.05;83.34;56974.16;5018816;28;20037;-79
2023/10/24 04:59:37;;;;;;;3.60;1.25;;;;;;;-144.05;82.84;56955.03;4999722;28;20042;-78
2023/10/24 05:02:03;;;;;;;3.85;1.23;;;15.20;99.90;;;-144.05;82.73;56986.91;5019386;28;20704;-79
2023/10/24 05:04:30;;;;;;;5.10;1.42;;;8.50;99.90;;;-144.05;82.82;56969.91;5015134;28;20120;-80
2023/10/24 05:06:56;;;;;;;2.13;1.10;;;15.80;99.90;;;-144.05;82.85;56965.66;5015595;28;20034;-80
2023/10/24 05:09:22;;;;;;;4.32;1.33;;;;;;;-144.05;82.74;56955.03;5015556;28;20491;-80
2023/10/24 05:11:48;;;;;;;4.32;1.20;;;8.80;99.90;;;-144.05;82.82;56957.16;5016113;28;20057;-80
2023/10/24 05:14:14;;;;;;;3.47;1.17;;;8.80;99.90;;;-144.05;83.19;56938.03;5018206;28;20148;-82
2023/10/24 05:16:40;;;;;;;1.58;1.30;;;;;;;-144.05;83.39;56995.38;4999429;28;20121;-78
2023/10/24 05:19:06;;;;;;;3.42;1.30;;;8.80;99.90;;;-144.05;83.46;56986.91;4997469;28;20053;-80
2023/10/24 05:21:33;;;;;;;2.42;1.40;;;;;;;-144.05;84.32;56978.41;5014938;28;20042;-81
2023/10/24 05:23:59;;;;;;;4.57;1.80;;;8.70;99.90;;;-144.05;84.91;56989.00;4996949;28;20025;-80
2023/10/24 05:26:25;;;;;;;3.55;1.50;;;;;;;-144.05;85.35;56935.91;4997341;28;20053;-79
2023/10/24 05:28:51;;;;;;;4.32;1.45;;;9.10;99.90;;;-144.05;85.13;56974.16;4997198;28;20030;-81
2023/10/24 05:31:17;;;;;;;3.25;1.85;;;8.90;99.90;;;-144.05;85.72;56965.66;5015093;28;20435;-81
2023/10/24 05:33:44;;;;;;;1.42;1.30;;;8.70;99.90;;;-144.05;85.28;56978.41;5014887;28;20030;-81
2023/10/24 05:36:10;;;;;;;2.10;1.55;;;;;;;-144.05;85.46;56995.38;4997240;28;20026;-78
2023/10/24 05:38:36;;;;;;;3.00;1.35;;;;;;;-144.05;85.06;56948.66;5014770;28;20079;-76
2023/10/24 05:41:03;;;;;;;1.73;1.15;;;;;;;-144.05;85.16;56957.16;5014854;28;20399;-81
2023/10/24 05:43:28;;;;;;;3.28;1.10;;;8.60;99.90;;;-144.05;84.85;56980.53;4998613;28;20037;-79
2023/10/24 05:45:55;;;;;;;2.38;1.42;;;12.20;99.90;;;-144.05;84.84;56946.53;5016247;28;20034;-78
2023/10/24 05:48:21;;;;;;;1.90;1.20;;;8.70;99.90;;;-144.05;84.17;56963.53;5014656;28;20102;-79
2023/10/24 05:50:47;;;;;;;4.35;1.73;;;8.30;99.90;;;-144.05;85.37;56959.28;5015372;28;20025;-79
2023/10/24 05:53:13;;;;;;;4.07;1.60;;;9.00;99.90;;;-144.05;84.96;56972.03;5014557;28;20060;-80
2023/10/24 05:55:41;;;;;;;3.97;1.48;;;8.60;99.90;;;-144.05;85.40;56976.28;5015391;28;20104;-79
2023/10/24 05:58:07;;;;;;;2.65;1.35;;;8.40;99.90;;;-144.05;85.75;56967.78;5018210;28;20092;-79
2023/10/24 06:00:33;;;;;;;5.13;1.58;;;15.40;99.90;;;-144.05;85.89;56978.41;5016953;28;20430;-82
2023/10/24 06:02:59;;;;;;;3.35;1.65;;;;;;;-144.05;85.69;56948.66;5017075;28;20048;-79
2023/10/24 06:05:26;;;;;;;1.52;1.27;;;;;;;-144.05;85.39;56976.28;5015641;28;20104;-81
2023/10/24 06:07:51;;;;;;;3.78;1.35;;;8.70;99.90;;;-144.05;84.97;56978.41;4998427;28;20030;-81
2023/10/24 06:10:18;;;;;;;2.25;1.13;;;;;;;-144.05;85.00;56984.78;4997594;28;20036;-79
2023/10/24 06:12:44;;;;;;;2.83;1.50;;;;;;;-144.05;85.14;56991.13;4997284;28;20037;-77
2023/10/24 06:15:10;;;;;;;2.13;1.38;;;9.60;99.90;;;-144.05;84.71;56955.03;4997213;28;20057;-80
2023/10/24 06:17:38;;;;;;;3.10;1.25;;;;;;;-144.05;83.79;56933.78;5015452;28;20135;-80
2023/10/24 06:20:05;;;;;;;7.05;1.08;;;;;;;-144.05;84.03;56940.16;5015672;28;20037;-80
2023/10/24 06:22:31;;;;;;;1.83;1.10;;;;;;;-144.05;83.82;56980.53;4997169;28;20073;-77
2023/10/24 06:25:00;;;;;;;3.58;1.45;;;15.70;99.90;;;-144.05;83.49;56974.16;5015333;28;20026;-80
2023/10/24 06:27:27;;;;;;;4.07;0.90;;;15.70;99.90;;;-144.05;83.31;56959.28;5015847;28;20026;-81
2023/10/24 06:29:52;;;;;;;2.30;0.98;;;9.10;99.90;;;-144.05;83.06;56989.00;5015722;28;20030;-80
2023/10/24 06:32:18;;;;;;;4.90;1.30;;;8.80;99.90;;;-144.05;82.67;56980.53;4997419;28;20474;-82
2023/10/24 06:34:44;;;;;;;2.45;1.35;;;9.50;99.90;;;-144.05;82.81;56974.16;5015545;28;20028;-79
2023/10/24 06:37:10;;;;;;;3.03;1.17;;;15.70;99.90;;;-144.05;82.76;56991.13;5015351;28;20066;-78
2023/10/24 06:39:36;;;;;;;2.53;1.23;;;8.70;99.90;;;-144.05;82.96;56976.28;5015242;28;20050;-79
2023/10/24 06:42:02;;;;;;;3.00;1.30;;;8.50;99.90;;;-144.05;82.25;56961.41;5015254;28;20455;-77
2023/10/24 06:44:28;;;;;;;3.28;1.00;;;15.40;99.90;;;-144.05;82.17;56967.78;5014579;28;20061;-81
2023/10/24 06:46:54;;;;;;;1.70;1.02;;;;;;;-144.05;81.69;56978.41;5014872;28;20413;-80
2023/10/24 06:49:21;;;;;;;3.00;1.17;;;;;;;-144.05;81.58;56965.66;5014685;28;20025;-80
2023/10/24 06:51:46;;;;;;;2.65;1.30;;;8.80;99.90;;;-144.05;81.02;56946.53;5025962;28;20022;-81
2023/10/24 06:54:13;;;;;;;3.03;1.45;;;9.00;99.90;;;-144.05;80.64;56961.41;5002294;28;20037;-78
2023/10/24 06:56:39;;;;;;;3.05;1.08;;;;;;;-144.05;80.70;56978.41;5013892;28;20038;-78
2023/10/24 06:59:04;;;;;;;3.30;1.30;;;15.60;99.90;;;-144.05;80.50;56974.16;5013729;28;20057;-79
2023/10/24 07:01:30;;;;;;;3.85;1.50;;;9.00;99.90;;;-144.05;79.95;56952.91;4996315;28;20041;-77
2023/10/24 07:03:56;;;;;;;3.03;1.40;;;;;;;-144.05;79.79;56955.03;5013688;28;20038;-76
2023/10/24 07:06:23;;;;;;;3.28;1.42;;;;;;;-144.05;79.50;56980.53;4995870;28;20057;-79
2023/10/24 07:08:51;;;;;;;2.53;1.50;;;;;;;-144.05;79.63;56959.28;4995968;28;20030;-79
2023/10/24 07:11:17;;;;;;;2.63;1.55;;;8.80;99.90;;;-144.05;79.59;56982.66;5013468;28;20113;-77
2023/10/24 07:13:42;;;;;;;3.13;1.55;;;8.70;99.90;;;-144.05;79.47;56972.03;5013313;28;20065;-77
2023/10/24 07:16:16;;;;;;;7.35;1.55;;;8.80;99.90;;;-144.05;79.05;56976.28;5013604;28;20034;-79
2023/10/24 07:18:42;;;;;;;2.65;1.27;;;8.70;99.90;;;-144.05;78.92;56984.78;5013171;28;20025;-78
2023/10/24 07:21:09;;;;;;;2.90;1.10;;;8.00;99.90;;;-144.05;78.84;56963.53;5014084;28;20030;-78
2023/10/24 07:23:35;;;;;;;2.45;1.30;;;8.90;99.90;;;-144.05;79.08;56989.00;5014490;28;20025;-80
2023/10/24 07:26:00;;;;;;;4.00;1.40;;;8.90;99.90;;;-144.05;79.12;56997.50;5014089;28;20030;-78
2023/10/24 07:28:26;;;;;;;1.73;1.20;;;8.60;99.90;;;-144.05;78.92;56946.53;5013612;28;20022;-79
2023/10/24 07:30:54;;;;;;;1.98;1.30;;;;;;;-144.05;78.50;56955.03;4996130;28;20044;-78
2023/10/24 07:33:22;;;;;;;3.17;1.42;;;;;;;-144.05;78.11;56986.91;5013684;28;20030;-77
2023/10/24 07:35:50;;;;;;;3.90;1.00;;;15.70;99.90;;;-144.05;77.68;56995.38;5013792;28;20049;-79
2023/10/24 07:38:18;;;;;;;3.88;1.85;;;15.70;99.90;;;-144.05;77.64;56957.16;5013473;28;20034;-78
2023/10/24 07:40:44;;;;;;;2.90;1.27;;;;;;;-144.05;77.78;56974.16;5013898;28;20105;-76
2023/10/24 07:43:10;;;;;;;2.70;1.10;;;;;;;-144.05;77.26;56952.91;5014080;28;20113;-77
2023/10/24 07:45:36;;;;;;;5.13;1.20;;;8.90;99.90;;;-144.05;77.98;56959.28;5013803;28;20120;-78
2023/10/24 07:48:03;;;;;;;3.17;1.35;;;;;;;-144.05;78.53;56942.28;5013647;28;20057;-78
2023/10/24 07:50:31;;;;;;;2.00;1.20;;;;;;;-144.05;78.24;56967.78;4997896;28;20088;-79
2023/10/24 07:52:57;;;;;;;4.05;1.30;;;8.70;99.90;;;-144.05;77.64;56995.38;5013256;28;20032;-75
2023/10/24 07:55:23;;;;;;;3.72;1.35;;;15.70;99.90;;;-144.05;77.87;56961.41;4996245;28;20402;-75
2023/10/24 07:57:51;;;;;;;3.85;1.67;;;;;;;-144.05;78.06;56984.78;5014430;28;20068;-78
2023/10/24 08:00:18;;;;;;;3.50;1.30;;;;;;;-144.05;77.54;56959.28;5014248;28;20044;-80
2023/10/24 08:02:43;;;;;;;2.17;1.20;;;9.60;99.90;;;-144.05;77.95;56933.78;5013585;28;20033;-78
2023/10/24 08:05:09;;;;;;;2.40;1.20;;;8.90;99.90;;;-144.05;77.00;56976.28;5013456;28;20034;-79
2023/10/24 08:07:37;;;;;;;1.77;1.35;;;8.90;99.90;;;-144.05;76.33;56967.78;5012533;28;20033;-79
2023/10/24 08:10:03;;;;;;;2.35;0.93;;;9.20;99.90;;;-144.05;77.72;56967.78;4995203;28;20038;-77
2023/10/24 08:12:29;;;;;;;2.15;1.30;;;9.10;99.90;;;-144.05;77.97;56982.66;4994956;28;20056;-78
2023/10/24 08:14:55;;;;;;;4.45;1.23;;;8.70;99.90;;;-144.05;77.39;56957.16;5012873;28;20113;-78
2023/10/24 08:17:21;;;;;;;2.50;1.00;;;;;;;-144.05;77.25;56942.28;5013241;28;20454;-78
2023/10/24 08:19:47;;;;;;;2.45;1.00;;;9.20;99.90;;;-144.05;77.30;56972.03;5013331;28;20427;-78
2023/10/24 08:22:13;;;;;;;1.60;0.90;;;;;;;-144.05;77.51;56967.78;4995837;28;20033;-78
2023/10/24 08:24:39;;;;;;;4.72;1.20;;;9.20;99.90;;;-144.05;77.18;56969.91;5013180;28;20069;-76
2023/10/24 08:27:05;;;;;;;2.47;1.23;;;;;;;-144.05;76.99;56925.28;5014184;28;20057;-79
2023/10/24 08:29:32;;;;;;;2.45;1.00;;;;;;;-144.05;77.34;56972.03;5025809;28;20022;-79
2023/10/24 08:31:57;;;;;;;6.05;1.27;;;9.50;99.90;;;-144.05;76.93;56989.00;5013564;28;20100;-79
2023/10/24 08:34:23;;;;;;;2.97;1.15;;;9.40;99.90;;;-144.05;76.82;56982.66;5013825;28;20064;-78
2023/10/24 08:36:49;;;;;;;4.47;1.30;;;15.70;99.90;;;-144.05;77.01;56972.03;5013907;28;20458;-76
2023/10/24 08:39:15;;;;;;;3.65;1.20;;;15.50;99.90;;;-144.05;78.02;56976.28;5013620;28;20476;-77
2023/10/24 08:41:48;;;;;;;1.48;0.90;;;15.60;99.90;;;-144.05;77.36;56978.41;4995997;28;20025;-78
2023/10/24 08:44:18;;;;;;;3.03;1.15;;;15.70;99.90;;;-144.05;76.22;56957.16;5013916;28;20037;-77
2023/10/24 08:46:46;;;;;;;2.88;1.02;;;15.80;99.90;;;-144.05;76.33;56978.41;5013129;28;20022;-78
2023/10/24 08:49:15;;;;;;;3.05;0.90;;;15.10;99.90;;;-144.05;75.80;56955.03;5014057;28;20105;-77
2023/10/24 08:51:41;;;;;;;3.85;1.00;;;15.70;99.90;;;-144.05;76.33;56984.78;5013270;28;20670;-78
2023/10/24 08:54:08;;;;;;;2.90;1.30;;;;;;;-144.05;75.22;56950.78;4996336;28;20030;-77
2023/10/24 08:56:38;;;;;;;2.00;1.10;;;15.90;99.90;;;-144.05;75.07;56965.66;5012844;28;20210;-78
2023/10/24 08:59:09;;;;;;;2.85;1.05;;;13.00;99.90;;;-144.05;73.89;56984.78;5013720;28;20018;-78
2023/10/24 09:01:43;;;;;;;3.67;1.00;;;9.80;99.90;;;-144.05;73.38;56946.53;5014341;28;20547;-81
2023/10/24 09:04:09;;;;;;;3.38;1.23;;;15.70;99.90;;;-144.05;73.19;56984.78;5013675;28;20100;-78
2023/10/24 09:06:37;;;;;;;3.47;1.10;;;15.90;99.90;;;-144.05;72.93;56982.66;5014663;28;20033;-79
2023/10/24 09:09:04;;;;;;;2.17;1.17;;;15.60;99.90;;;-144.05;72.31;56946.53;5015766;28;20063;-78
2023/10/24 09:12:04;;;;;;;2.22;1.00;;;15.70;99.90;;;-144.05;72.24;56972.03;5015678;28;20022;-79
2023/10/24 09:14:30;;;;;;;2.42;0.60;;;;;;;-144.05;71.33;56976.28;5014691;28;20391;-77
2023/10/24 09:17:05;;;;;;;3.42;0.93;;;15.80;99.90;;;-144.05;71.06;56978.41;5014750;28;20038;-76
2023/10/24 09:19:32;;;;;;;3.33;1.38;;;15.90;99.90;;;-144.05;70.46;57003.88;5017865;28;20026;-79
2023/10/24 09:21:59;;;;;;;3.17;1.10;;;9.80;99.90;;;-144.05;71.10;56976.28;4999462;28;20032;-78
2023/10/24 09:24:26;;;;;;;2.60;1.15;;;;;;;-144.05;71.89;56963.53;4999343;28;20093;-78
2023/10/24 09:26:57;;;;;;;2.20;0.73;;;9.30;99.90;;;-144.05;72.28;56976.28;5016993;28;20026;-78
2023/10/24 09:29:27;;;;;;;5.30;1.65;;;13.30;99.90;;;-144.05;73.13;56999.63;5009257;28;20026;-76
2023/10/24 09:31:58;;;;;;;1.65;1.10;;;9.60;99.90;;;-144.05;73.35;56984.78;4999212;28;20022;-78
2023/10/24 09:34:26;;;;;;;2.45;1.05;;;9.50;99.90;;;-144.05;72.41;56969.91;5017121;28;20088;-78
2023/10/24 09:36:53;;;;;;;0.90;0.73;;;9.50;99.90;;;-144.05;71.27;56982.66;4999481;28;20034;-79
2023/10/24 09:39:19;;;;;;;3.00;1.00;;;;;;;-144.05;71.13;56989.00;5016436;28;20030;-76
2023/10/24 09:41:49;;;;;;;2.42;0.82;;;10.00;99.90;;;-144.05;71.80;56972.03;5021125;28;20036;-78
2023/10/24 09:44:17;;;;;;;2.17;0.88;;;15.80;99.90;;;-144.05;70.54;56986.91;5029728;28;20498;-77
2023/10/24 09:46:44;;;;;;;1.20;0.70;;;;;;;-144.05;70.64;56969.91;5033725;28;20048;-76
2023/10/24 09:49:12;;;;;;;3.40;1.00;;;10.20;99.90;;;-144.05;71.19;56982.66;5015987;28;20049;-79
2023/10/24 09:51:39;;;;;;;1.02;0.70;;;10.10;99.90;;;-144.05;71.11;56959.28;5021778;28;20022;-78
2023/10/24 09:54:07;;;;;;;1.27;0.98;;;15.90;99.90;;;-144.05;70.19;56984.78;5017122;28;20025;-78
2023/10/24 09:56:33;;;;;;;5.78;0.98;;;15.60;99.90;;;-144.05;70.07;56952.91;5016374;28;20030;-78
2023/10/24 09:59:02;;;;;;;4.80;1.00;;;16.00;99.90;;;-144.05;70.39;56978.41;5016573;28;20483;-77
2023/10/24 10:01:28;;;;;;;1.00;0.80;;;;;;;-144.05;69.86;56961.41;5016568;28;20042;-77
2023/10/24 10:04:00;;;;;;;1.95;0.80;;;10.10;99.90;;;-144.05;69.53;56965.66;5016925;28;20041;-76
2023/10/24 10:06:32;;;;;;;1.25;0.85;;;10.40;99.90;;;-144.05;69.35;56974.16;5017506;28;20076;-77
2023/10/24 10:08:59;;;;;;;1.40;0.75;;;10.40;99.90;;;-144.05;68.59;56963.53;5016118;28;20053;-79
2023/10/24 10:11:30;;;;;;;4.70;0.80;;;16.00;99.90;;;-144.05;69.22;56976.28;5016892;28;20405;-79
2023/10/24 10:15:15;;;;;;;1.48;0.60;;;10.80;99.90;;;-144.05;68.59;56938.03;5015889;28;20494;-79
2023/10/24 10:18:03;;;;;;;3.28;1.02;;;10.70;99.90;;;-144.05;66.82;56972.03;5010260;28;20050;-77
2023/10/24 10:21:13;;;;;;;2.70;0.95;;;15.70;99.90;;;-144.05;65.39;56946.53;5010665;28;20580;-78
2023/10/24 10:23:59;;;;;;;3.05;0.80;;;11.30;99.90;;;-144.05;65.93;56950.78;5015892;28;20030;-77
2023/10/24 10:26:57;;;;;;;2.90;0.90;;;11.80;99.90;;;-144.05;62.81;56950.78;5016542;28;20030;-80
2023/10/24 10:29:53;;;;;;;1.88;0.73;;;16.20;99.90;;;-144.05;63.48;56989.00;4997818;28;20029;-79
2023/10/24 10:32:44;;;;;;;2.38;1.00;;;16.20;99.90;;;-144.05;61.37;56967.78;5016231;28;20029;-79